Haringey, United Kingdom
Current Conditions -  °F | °C
As of 6:20 AM on Thursday 27 Nov 2014 (Local Time) from EGLC Reporting Station
Drizzle Drizzle  
Wind Chill: 52°   Ceiling: 1200
Heat Index: 52°   Visibility: 3mi
Dew Point: 50°   Wind: 5mph
Humidity: 94%   Direction: 110°ESE
Pressure: 29.62"   Gusts: NA
Location:  51.59°N, 0.1°W
Report Text: EGLC 270620Z 11004KT 4900 -DZ BR FEW004 BKN012 11/10 Q1003
Loading
Personal Weather Stations






























Interactive Weather Map New forecast layout! Learn more

10-Day Weather Forecast

Advertisements
Track Severe Weather on mobile